Time;durP1;ratioP1;P1;durP2;ratioP2;P2;SDS_P1;SDS_P2;PMS_P1;PMS_P2;Temp;Humidity;BMP_temperature;BMP_pressure;BME280_temperature;BME280_humidity;BME280_pressure;Samples;Min_cycle;Max_cycle;Signal;HPM_P1;HPM_P2
2024/01/23 00:00:17;;;;;;;2.00;1.87;;;21.80;52.90;;;;;;5052419;28;20439;-64
2024/01/23 00:02:47;;;;;;;3.43;1.30;;;21.80;52.90;;;;;;5047626;28;20545;-64
2024/01/23 00:05:15;;;;;;;1.50;1.27;;;21.80;52.90;;;;;;5039116;28;20539;-64
2024/01/23 00:07:43;;;;;;;1.93;1.80;;;21.80;52.80;;;;;;5036631;28;20495;-64
2024/01/23 00:10:12;;;;;;;2.03;1.53;;;21.80;52.70;;;;;;5041075;28;20451;-64
2024/01/23 00:12:40;;;;;;;1.90;1.70;;;21.80;52.70;;;;;;5031418;28;21036;-64
2024/01/23 00:15:09;;;;;;;2.00;1.50;;;21.80;52.70;;;;;;5030421;28;21204;-64
2024/01/23 00:17:37;;;;;;;1.97;1.50;;;21.80;52.70;;;;;;5048274;28;20573;-64
2024/01/23 00:20:08;;;;;;;2.10;1.80;;;21.80;52.60;;;;;;5045037;28;20512;-64
2024/01/23 00:22:36;;;;;;;1.80;1.50;;;21.80;52.70;;;;;;5050719;28;20545;-63
2024/01/23 00:25:05;;;;;;;1.53;1.43;;;21.80;52.80;;;;;;5045886;28;20543;-64
2024/01/23 00:27:34;;;;;;;2.47;1.60;;;21.80;52.60;;;;;;5050485;28;20464;-64
2024/01/23 00:30:02;;;;;;;1.63;1.53;;;21.80;52.70;;;;;;5049303;28;20538;-64
2024/01/23 00:32:30;;;;;;;1.60;1.37;;;21.80;52.70;;;;;;5049710;28;20434;-64
2024/01/23 00:34:59;;;;;;;2.30;1.67;;;21.80;52.60;;;;;;5041269;28;20473;-64
2024/01/23 00:37:29;;;;;;;1.07;1.00;;;21.80;52.70;;;;;;5032236;28;20804;-64
2024/01/23 00:39:59;;;;;;;1.13;1.03;;;21.80;52.60;;;;;;5052606;28;20454;-64
2024/01/23 00:42:27;;;;;;;2.53;1.43;;;21.80;52.60;;;;;;5035420;28;20469;-64
2024/01/23 00:44:55;;;;;;;1.90;1.67;;;21.80;52.60;;;;;;5047013;28;20980;-64
2024/01/23 00:47:24;;;;;;;1.67;1.20;;;21.80;52.50;;;;;;5054428;28;20427;-64
2024/01/23 00:49:52;;;;;;;1.50;1.40;;;21.80;52.50;;;;;;5053524;28;20440;-64
2024/01/23 00:52:20;;;;;;;1.50;1.40;;;21.80;52.50;;;;;;5054255;28;20449;-64
2024/01/23 00:54:50;;;;;;;2.10;1.37;;;21.70;52.50;;;;;;5046753;28;20444;-64
2024/01/23 00:57:18;;;;;;;1.50;1.40;;;21.70;52.40;;;;;;5045569;28;20475;-64
2024/01/23 00:59:46;;;;;;;1.77;1.13;;;21.70;52.40;;;;;;5044707;28;20974;-64
2024/01/23 01:02:15;;;;;;;1.50;1.40;;;21.70;52.30;;;;;;5053831;28;20919;-64
2024/01/23 01:04:46;;;;;;;2.23;1.50;;;21.70;52.40;;;;;;5043041;28;20865;-64
2024/01/23 01:07:15;;;;;;;1.60;1.00;;;21.70;52.30;;;;;;5041790;28;20488;-64
2024/01/23 01:09:43;;;;;;;1.33;0.90;;;21.70;52.40;;;;;;5053050;28;20454;-64
2024/01/23 01:12:13;;;;;;;3.27;1.43;;;21.70;52.40;;;;;;5049301;28;20464;-64
2024/01/23 01:14:43;;;;;;;1.00;0.80;;;21.70;52.40;;;;;;5049578;28;20469;-63
2024/01/23 01:17:11;;;;;;;1.17;1.07;;;21.70;52.30;;;;;;5045172;28;21365;-63
2024/01/23 01:19:39;;;;;;;1.30;1.20;;;21.70;52.30;;;;;;5050865;28;20523;-64
2024/01/23 01:22:07;;;;;;;1.20;1.10;;;21.70;52.20;;;;;;5055389;28;20459;-64
2024/01/23 01:24:36;;;;;;;1.47;1.27;;;21.70;52.30;;;;;;5060056;28;20929;-64
2024/01/23 01:27:04;;;;;;;1.20;1.10;;;21.70;52.20;;;;;;5054078;28;20482;-64
2024/01/23 01:29:34;;;;;;;1.20;1.03;;;21.70;52.40;;;;;;5052462;28;20898;-64
2024/01/23 01:32:02;;;;;;;1.00;0.87;;;21.60;52.30;;;;;;5037843;28;20502;-64
2024/01/23 01:34:31;;;;;;;1.90;1.70;;;21.70;52.30;;;;;;5037687;28;20458;-64
2024/01/23 01:37:00;;;;;;;2.17;1.00;;;21.60;52.20;;;;;;5037375;28;20844;-64
2024/01/23 01:39:28;;;;;;;1.93;1.07;;;21.60;52.30;;;;;;5052099;28;20979;-64
2024/01/23 01:41:57;;;;;;;1.50;1.27;;;21.60;52.30;;;;;;5047126;28;20554;-64
2024/01/23 01:44:25;;;;;;;0.93;0.83;;;21.60;52.30;;;;;;5044062;28;20933;-64
2024/01/23 01:46:55;;;;;;;1.17;0.90;;;21.60;52.10;;;;;;5037577;28;20458;-64
2024/01/23 01:49:23;;;;;;;1.23;1.10;;;21.60;52.10;;;;;;5034977;28;20581;-64
2024/01/23 01:51:53;;;;;;;1.40;1.30;;;21.60;52.10;;;;;;5051699;28;20493;-64
2024/01/23 01:54:22;;;;;;;1.50;1.27;;;21.60;52.00;;;;;;5032598;28;20857;-64
2024/01/23 01:56:53;;;;;;;0.97;0.97;;;21.50;52.10;;;;;;5036452;28;21015;-64
2024/01/23 01:59:21;;;;;;;1.07;0.97;;;21.50;52.10;;;;;;5039695;28;20488;-64
2024/01/23 02:01:50;;;;;;;1.70;1.07;;;21.50;52.00;;;;;;5049245;28;20957;-64
2024/01/23 02:04:20;;;;;;;1.17;1.00;;;21.50;52.10;;;;;;5041305;28;20510;-64
2024/01/23 02:06:48;;;;;;;1.10;1.00;;;21.50;52.10;;;;;;5035138;28;20755;-64
2024/01/23 02:09:16;;;;;;;1.63;0.90;;;21.50;52.10;;;;;;5038674;28;20457;-64
2024/01/23 02:11:57;;;;;;;1.10;1.00;;;21.50;52.20;;;;;;5052986;28;20451;-64
2024/01/23 02:14:26;;;;;;;1.27;1.00;;;21.50;52.20;;;;;;5037583;28;20456;-64
2024/01/23 02:16:55;;;;;;;1.37;1.20;;;21.40;52.20;;;;;;5053088;28;20794;-64
2024/01/23 02:19:26;;;;;;;1.27;1.03;;;21.40;52.20;;;;;;5047214;28;20487;-64
2024/01/23 02:21:54;;;;;;;1.60;1.00;;;21.40;52.20;;;;;;5052406;28;20524;-64
2024/01/23 02:24:24;;;;;;;1.40;1.30;;;21.40;52.20;;;;;;5052649;28;20956;-64
2024/01/23 02:26:52;;;;;;;0.83;0.83;;;21.40;52.10;;;;;;5052515;28;20442;-64
2024/01/23 02:29:20;;;;;;;1.50;1.30;;;21.40;52.10;;;;;;5047349;28;20941;-64
2024/01/23 02:31:48;;;;;;;1.97;1.10;;;21.40;52.10;;;;;;5046020;28;20458;-63
2024/01/23 02:34:17;;;;;;;1.43;1.00;;;21.40;52.10;;;;;;5045886;28;20456;-64
2024/01/23 02:36:47;;;;;;;1.40;1.13;;;21.40;52.00;;;;;;5033099;28;20438;-64
2024/01/23 02:39:16;;;;;;;0.90;0.90;;;21.40;52.00;;;;;;5037973;28;20479;-64
2024/01/23 02:41:45;;;;;;;1.27;1.17;;;21.40;52.00;;;;;;5045275;28;20445;-64
2024/01/23 02:44:13;;;;;;;0.93;0.87;;;21.30;51.90;;;;;;5052872;28;20423;-64
2024/01/23 02:46:43;;;;;;;1.30;0.83;;;21.30;52.00;;;;;;5042628;28;20953;-64
2024/01/23 02:49:11;;;;;;;1.70;1.53;;;21.30;52.00;;;;;;5049441;28;20920;-64
2024/01/23 02:51:39;;;;;;;1.33;1.23;;;21.30;52.00;;;;;;5041442;28;21009;-64
2024/01/23 02:54:08;;;;;;;1.10;1.00;;;21.30;51.90;;;;;;5051916;28;20532;-64
2024/01/23 02:56:36;;;;;;;4.73;1.00;;;21.30;52.00;;;;;;5057964;28;20486;-64
2024/01/23 02:59:06;;;;;;;1.13;0.83;;;21.30;51.90;;;;;;5046429;28;20473;-64
2024/01/23 03:01:34;;;;;;;1.17;1.00;;;21.30;52.00;;;;;;5064148;28;20942;-63
2024/01/23 03:04:02;;;;;;;3.27;0.90;;;21.20;52.00;;;;;;5049295;28;20461;-64
2024/01/23 03:06:31;;;;;;;1.47;1.37;;;21.20;52.00;;;;;;5039746;28;20470;-64
2024/01/23 03:08:59;;;;;;;1.70;1.30;;;21.20;52.00;;;;;;5050623;28;20474;-64
2024/01/23 03:11:28;;;;;;;1.00;1.00;;;21.20;52.00;;;;;;5050953;28;20438;-64
2024/01/23 03:13:56;;;;;;;1.50;0.90;;;21.20;52.00;;;;;;5051432;28;20824;-64
2024/01/23 03:16:27;;;;;;;1.23;1.07;;;21.20;51.90;;;;;;5051731;28;20783;-64
2024/01/23 03:18:55;;;;;;;1.13;1.03;;;21.20;52.00;;;;;;5051159;28;20434;-64
2024/01/23 03:21:23;;;;;;;1.63;1.10;;;21.20;52.00;;;;;;5041331;28;20459;-64
2024/01/23 03:23:52;;;;;;;0.97;0.97;;;21.20;51.90;;;;;;5045636;28;20751;-64
2024/01/23 03:26:20;;;;;;;1.27;1.10;;;21.20;51.90;;;;;;5061603;28;20805;-64
2024/01/23 03:28:54;;;;;;;1.03;0.93;;;21.20;51.90;;;;;;5041739;28;20484;-64
2024/01/23 03:31:22;;;;;;;1.03;1.00;;;21.20;51.80;;;;;;5051134;28;20844;-64
2024/01/23 03:33:52;;;;;;;1.13;1.00;;;21.20;51.80;;;;;;5044754;28;20459;-64
2024/01/23 03:36:21;;;;;;;1.10;1.00;;;21.20;51.90;;;;;;5051313;28;20455;-64
2024/01/23 03:38:49;;;;;;;0.93;0.80;;;21.10;51.90;;;;;;5044904;28;20535;-64
2024/01/23 03:41:18;;;;;;;1.03;0.80;;;21.10;51.90;;;;;;5051457;28;20477;-64
2024/01/23 03:43:48;;;;;;;2.23;0.97;;;21.10;51.90;;;;;;5058157;28;20451;-64
2024/01/23 03:46:15;;;;;;;2.17;1.20;;;21.10;51.90;;;;;;5064724;28;20514;-64
2024/01/23 03:48:44;;;;;;;2.10;1.37;;;21.10;51.90;;;;;;5051204;28;20486;-64
2024/01/23 03:51:13;;;;;;;1.73;1.20;;;21.10;51.90;;;;;;5050745;28;20433;-64
2024/01/23 03:53:42;;;;;;;1.17;1.00;;;21.10;51.90;;;;;;5051550;28;20437;-64
2024/01/23 03:56:10;;;;;;;0.87;0.53;;;21.10;51.90;;;;;;5048355;28;20451;-64
2024/01/23 03:58:38;;;;;;;1.10;1.00;;;21.10;51.80;;;;;;5046072;28;20787;-64
2024/01/23 04:01:07;;;;;;;1.07;0.97;;;21.10;51.80;;;;;;5046964;28;20491;-64
2024/01/23 04:03:35;;;;;;;2.20;1.07;;;21.10;51.80;;;;;;5051397;28;20455;-64
2024/01/23 04:06:04;;;;;;;1.30;1.20;;;21.10;51.80;;;;;;5057871;28;20517;-64
2024/01/23 04:08:34;;;;;;;1.17;0.90;;;21.10;51.80;;;;;;5041801;28;20491;-64
2024/01/23 04:11:02;;;;;;;1.07;1.00;;;21.10;51.80;;;;;;5047438;28;20523;-64
2024/01/23 04:13:30;;;;;;;1.63;0.90;;;21.10;51.80;;;;;;5042864;28;20462;-64
2024/01/23 04:15:59;;;;;;;1.67;1.20;;;21.10;51.80;;;;;;5044148;28;20514;-64
2024/01/23 04:18:27;;;;;;;1.87;1.10;;;21.10;51.80;;;;;;5047169;28;21400;-64
2024/01/23 04:20:55;;;;;;;1.13;0.93;;;21.10;51.80;;;;;;5042565;28;20554;-64
2024/01/23 04:23:23;;;;;;;1.10;1.00;;;21.10;51.80;;;;;;5049174;28;20559;-64
2024/01/23 04:25:53;;;;;;;1.37;1.10;;;21.10;51.80;;;;;;5044329;28;20453;-64
2024/01/23 04:28:20;;;;;;;1.03;0.90;;;21.10;51.70;;;;;;5036200;28;20460;-64
2024/01/23 04:30:52;;;;;;;1.30;1.07;;;21.10;51.70;;;;;;5052026;28;20788;-64
2024/01/23 04:33:21;;;;;;;1.67;1.10;;;21.20;51.70;;;;;;5039017;28;20479;-64
2024/01/23 04:35:49;;;;;;;2.53;1.50;;;21.20;51.50;;;;;;5036824;28;20501;-64
2024/01/23 04:38:17;;;;;;;1.00;0.90;;;21.20;51.40;;;;;;5050370;28;20875;-64
2024/01/23 04:40:46;;;;;;;1.73;1.40;;;21.30;51.50;;;;;;5045826;28;20559;-64
2024/01/23 04:43:16;;;;;;;3.20;1.10;;;21.30;51.40;;;;;;5034411;28;20493;-64
2024/01/23 04:45:44;;;;;;;2.20;1.20;;;21.30;51.40;;;;;;5044776;28;20459;-64
2024/01/23 04:48:13;;;;;;;2.73;0.90;;;21.30;51.40;;;;;;5048017;28;20443;-64
2024/01/23 04:50:41;;;;;;;1.10;1.00;;;21.40;51.40;;;;;;5040948;28;20473;-64
2024/01/23 04:53:09;;;;;;;0.80;0.80;;;21.40;51.30;;;;;;5050627;28;20442;-64
2024/01/23 04:55:38;;;;;;;2.20;0.87;;;21.40;51.40;;;;;;5049780;28;20440;-64
2024/01/23 04:58:06;;;;;;;1.00;0.90;;;21.40;51.40;;;;;;5049972;28;20431;-64
2024/01/23 05:00:36;;;;;;;1.10;0.90;;;21.50;51.30;;;;;;5040215;28;20465;-64
2024/01/23 05:03:05;;;;;;;1.50;1.30;;;21.50;51.40;;;;;;5043679;28;20506;-64
2024/01/23 05:05:33;;;;;;;1.13;0.87;;;21.50;51.40;;;;;;5043825;28;20473;-64
2024/01/23 05:08:01;;;;;;;1.80;0.83;;;21.50;51.40;;;;;;5046718;28;20470;-64
2024/01/23 05:10:30;;;;;;;2.00;1.00;;;21.60;51.30;;;;;;5044281;28;20459;-64
2024/01/23 05:12:58;;;;;;;1.83;1.20;;;21.60;51.30;;;;;;5050539;28;20819;-64
2024/01/23 05:15:26;;;;;;;2.30;1.07;;;21.60;51.30;;;;;;5046332;28;20841;-64
2024/01/23 05:17:59;;;;;;;1.13;1.13;;;21.60;51.40;;;;;;5044832;28;20452;-64
2024/01/23 05:20:27;;;;;;;1.30;1.00;;;21.70;51.10;;;;;;5048170;28;20480;-64
2024/01/23 05:22:55;;;;;;;1.10;1.03;;;21.70;51.00;;;;;;5047538;28;20532;-64
2024/01/23 05:25:25;;;;;;;1.07;0.97;;;21.70;51.00;;;;;;5050191;28;20476;-65
2024/01/23 05:27:53;;;;;;;1.97;1.00;;;21.70;51.00;;;;;;5043705;28;20516;-64
2024/01/23 05:30:21;;;;;;;1.80;1.13;;;21.80;50.90;;;;;;5050663;28;20455;-65
2024/01/23 05:32:50;;;;;;;1.03;1.03;;;21.70;50.90;;;;;;5053356;28;20457;-64
2024/01/23 05:35:20;;;;;;;1.40;0.93;;;21.70;50.90;;;;;;5050152;28;20843;-64
2024/01/23 05:37:48;;;;;;;1.30;1.07;;;21.70;50.80;;;;;;5053875;28;20487;-64
2024/01/23 05:40:17;;;;;;;2.20;1.33;;;21.70;50.90;;;;;;5053092;28;20524;-64
2024/01/23 05:42:46;;;;;;;1.20;0.90;;;21.70;50.90;;;;;;5057313;28;20489;-65
2024/01/23 05:45:14;;;;;;;1.23;1.03;;;21.70;50.90;;;;;;5049819;28;20443;-64
2024/01/23 05:47:42;;;;;;;1.20;1.00;;;21.70;51.00;;;;;;5045240;28;20464;-64
2024/01/23 05:50:11;;;;;;;1.33;1.20;;;21.60;51.00;;;;;;5046610;28;20584;-64
2024/01/23 05:52:40;;;;;;;2.20;1.17;;;21.60;51.10;;;;;;5047502;28;20528;-65
2024/01/23 05:55:09;;;;;;;1.73;0.97;;;21.60;51.10;;;;;;5045545;28;20481;-65
2024/01/23 05:57:37;;;;;;;1.40;0.93;;;21.60;51.10;;;;;;5045802;28;20449;-65
2024/01/23 06:00:11;;;;;;;1.13;0.90;;;21.50;51.20;;;;;;5045496;28;20471;-64
2024/01/23 06:02:40;;;;;;;1.10;1.00;;;21.50;51.40;;;;;;5081949;28;20456;-64
2024/01/23 06:05:09;;;;;;;0.80;0.70;;;21.50;51.60;;;;;;5045023;28;20962;-65
2024/01/23 06:07:43;;;;;;;1.23;1.13;;;21.50;51.80;;;;;;5051002;28;20483;-65
2024/01/23 06:10:11;;;;;;;1.60;1.10;;;21.50;52.00;;;;;;5039240;28;20544;-65
2024/01/23 06:12:39;;;;;;;0.70;0.60;;;21.50;52.10;;;;;;5045146;28;20468;-65
2024/01/23 06:15:09;;;;;;;2.47;1.10;;;21.60;52.20;;;;;;5046555;28;20464;-65
2024/01/23 06:17:37;;;;;;;2.47;0.87;;;21.60;52.20;;;;;;5044906;28;20496;-65
2024/01/23 06:20:08;;;;;;;1.50;0.83;;;21.60;52.40;;;;;;5042903;28;20469;-65
2024/01/23 06:22:36;;;;;;;0.87;0.87;;;21.60;52.50;;;;;;5042175;28;20528;-65
2024/01/23 06:25:08;;;;;;;3.60;1.00;;;21.60;52.70;;;;;;5046272;28;21609;-65
2024/01/23 06:27:36;;;;;;;1.10;1.00;;;21.60;52.70;;;;;;5046041;28;20488;-65
2024/01/23 06:30:07;;;;;;;1.43;1.00;;;21.60;52.70;;;;;;5040510;28;20457;-65
2024/01/23 06:32:36;;;;;;;2.10;1.33;;;21.60;52.70;;;;;;5042751;28;21013;-65
2024/01/23 06:35:06;;;;;;;1.53;1.00;;;21.60;52.80;;;;;;5032461;28;20459;-65
2024/01/23 06:37:34;;;;;;;1.50;1.13;;;21.60;52.50;;;;;;5035188;28;20457;-65
2024/01/23 06:40:03;;;;;;;3.53;1.10;;;21.60;52.30;;;;;;5035018;28;20469;-65
2024/01/23 06:42:35;;;;;;;1.77;1.03;;;21.60;52.30;;;;;;5036545;28;20473;-65
2024/01/23 06:45:03;;;;;;;1.50;1.20;;;21.60;52.00;;;;;;5038924;28;20504;-65
2024/01/23 06:47:32;;;;;;;1.47;0.80;;;21.60;51.90;;;;;;5048707;28;20472;-64
2024/01/23 06:50:00;;;;;;;2.97;0.90;;;21.60;51.70;;;;;;5041362;28;20490;-64
2024/01/23 06:52:28;;;;;;;2.10;0.70;;;21.50;51.50;;;;;;5050579;28;20507;-64
2024/01/23 06:54:57;;;;;;;0.97;0.87;;;21.50;51.40;;;;;;5051804;28;20433;-64
2024/01/23 06:57:25;;;;;;;0.67;0.67;;;21.50;51.30;;;;;;5052648;28;20452;-64
2024/01/23 06:59:54;;;;;;;0.83;0.67;;;21.40;51.30;;;;;;5050982;28;20431;-64
2024/01/23 07:02:23;;;;;;;3.50;1.10;;;21.40;51.10;;;;;;5049330;28;20560;-64
2024/01/23 07:04:51;;;;;;;1.27;0.53;;;21.40;51.00;;;;;;5043960;28;20514;-64
2024/01/23 07:07:20;;;;;;;1.03;0.70;;;21.40;51.10;;;;;;5033648;28;20575;-64
2024/01/23 07:09:48;;;;;;;3.80;0.80;;;21.30;51.00;;;;;;5037495;28;20952;-64
2024/01/23 07:12:17;;;;;;;1.17;0.83;;;21.30;51.00;;;;;;5051266;28;20531;-65
2024/01/23 07:14:45;;;;;;;0.77;0.53;;;21.30;51.00;;;;;;5039838;28;20460;-65
2024/01/23 07:17:15;;;;;;;0.50;0.40;;;21.30;51.00;;;;;;5042490;28;20448;-65
2024/01/23 07:19:44;;;;;;;0.70;0.67;;;21.30;51.00;;;;;;5039355;28;20454;-64
2024/01/23 07:22:12;;;;;;;1.03;0.70;;;21.30;51.00;;;;;;5047214;28;20467;-64
2024/01/23 07:24:40;;;;;;;1.17;0.77;;;21.30;51.00;;;;;;5047270;28;20455;-64
2024/01/23 07:27:09;;;;;;;1.40;0.60;;;21.40;51.00;;;;;;5044041;28;20451;-64
2024/01/23 07:29:38;;;;;;;1.43;0.60;;;21.40;51.00;;;;;;5039580;28;20942;-65
2024/01/23 07:32:07;;;;;;;7.63;0.80;;;21.40;51.00;;;;;;5037113;28;20468;-65
2024/01/23 07:34:36;;;;;;;0.90;0.70;;;21.40;51.00;;;;;;5043292;28;20449;-65
2024/01/23 07:37:04;;;;;;;1.13;1.10;;;21.50;51.00;;;;;;5031905;28;20446;-65
2024/01/23 07:39:32;;;;;;;0.50;0.40;;;21.50;51.00;;;;;;5036696;28;20466;-65
2024/01/23 07:42:02;;;;;;;0.90;0.47;;;21.60;51.00;;;;;;5043559;28;20472;-65
2024/01/23 07:44:32;;;;;;;0.50;0.43;;;21.60;51.00;;;;;;5037333;28;20462;-65
2024/01/23 07:47:00;;;;;;;0.93;0.50;;;21.60;50.90;;;;;;5042997;28;21363;-65
2024/01/23 07:49:28;;;;;;;0.90;0.83;;;21.60;50.90;;;;;;5042844;28;20492;-65
2024/01/23 07:51:58;;;;;;;0.60;0.47;;;21.70;50.70;;;;;;5047913;28;20452;-65
2024/01/23 07:54:26;;;;;;;1.17;0.80;;;21.70;50.70;;;;;;5034492;28;20445;-65
2024/01/23 07:56:55;;;;;;;0.80;0.50;;;21.70;50.70;;;;;;5044101;28;20493;-72
2024/01/23 07:59:23;;;;;;;2.37;0.70;;;21.70;50.80;;;;;;5046206;28;20818;-70
2024/01/23 08:01:52;;;;;;;1.87;0.67;;;21.70;51.00;;;;;;5045243;28;20964;-70
2024/01/23 08:04:20;;;;;;;2.47;0.60;;;21.70;51.20;;;;;;5044668;28;20456;-79
2024/01/23 08:06:48;;;;;;;0.73;0.47;;;21.70;51.10;;;;;;5040334;28;20489;-79
2024/01/23 08:09:19;;;;;;;2.10;0.50;;;21.70;51.20;;;;;;5046176;28;20464;-77
2024/01/23 08:11:48;;;;;;;0.63;0.50;;;21.70;51.10;;;;;;5044358;28;20456;-75
2024/01/23 08:14:17;;;;;;;1.07;0.47;;;21.70;51.10;;;;;;5039395;28;20466;-72
2024/01/23 08:16:45;;;;;;;1.03;0.53;;;21.70;51.10;;;;;;5041984;28;20466;-73
2024/01/23 08:19:13;;;;;;;0.70;0.40;;;21.70;51.20;;;;;;5045340;28;20840;-72
2024/01/23 08:21:41;;;;;;;0.53;0.53;;;21.70;51.20;;;;;;5043192;28;20452;-74
2024/01/23 08:24:10;;;;;;;0.93;0.50;;;21.70;51.20;;;;;;5048883;28;20525;-71
2024/01/23 08:26:39;;;;;;;2.07;0.50;;;21.70;51.20;;;;;;5044979;28;20457;-73
2024/01/23 08:29:08;;;;;;;0.40;0.40;;;21.80;51.20;;;;;;5042612;28;20465;-72
2024/01/23 08:31:36;;;;;;;1.23;0.40;;;21.80;51.20;;;;;;5045832;28;20453;-74
2024/01/23 08:34:06;;;;;;;2.10;0.73;;;21.80;51.20;;;;;;5044441;28;20949;-73
2024/01/23 08:36:34;;;;;;;0.60;0.50;;;21.80;51.20;;;;;;5046909;28;20448;-73
2024/01/23 08:39:03;;;;;;;0.70;0.50;;;21.90;51.20;;;;;;5045092;28;20577;-76
2024/01/23 08:41:32;;;;;;;0.50;0.50;;;21.90;51.10;;;;;;5048031;28;20459;-76
2024/01/23 08:44:02;;;;;;;0.60;0.50;;;22.00;51.00;;;;;;5046710;28;20480;-74
2024/01/23 08:46:30;;;;;;;0.73;0.50;;;22.00;51.00;;;;;;5047868;28;20940;-75
2024/01/23 08:48:59;;;;;;;0.83;0.80;;;22.00;50.90;;;;;;5042830;28;20478;-73
2024/01/23 08:51:28;;;;;;;2.40;0.70;;;22.00;51.00;;;;;;5039676;28;20513;-75
2024/01/23 08:53:56;;;;;;;2.80;0.70;;;22.10;50.90;;;;;;5045875;28;20458;-76
2024/01/23 08:56:25;;;;;;;0.90;0.50;;;22.10;50.60;;;;;;5044450;28;20504;-74
2024/01/23 08:58:53;;;;;;;0.50;0.40;;;22.10;50.50;;;;;;5046491;28;20478;-73
2024/01/23 09:01:23;;;;;;;1.63;0.70;;;22.10;50.50;;;;;;5044730;28;20476;-73
2024/01/23 09:03:51;;;;;;;0.57;0.57;;;22.00;50.60;;;;;;5046991;28;20472;-73
2024/01/23 09:06:20;;;;;;;2.57;0.70;;;22.00;50.70;;;;;;5051364;28;20450;-74
2024/01/23 09:08:48;;;;;;;1.10;0.57;;;22.00;50.60;;;;;;5048981;28;20501;-76
2024/01/23 09:11:16;;;;;;;0.70;0.60;;;22.00;50.70;;;;;;5048631;28;20447;-72
2024/01/23 09:13:44;;;;;;;1.27;0.53;;;22.00;50.70;;;;;;5051710;28;20514;-73
2024/01/23 09:16:13;;;;;;;1.83;0.70;;;21.90;50.70;;;;;;5045064;28;20481;-74
2024/01/23 09:18:48;;;;;;;1.00;0.90;;;22.00;50.90;;;;;;5049499;28;20477;-75
2024/01/23 09:21:16;;;;;;;0.93;0.60;;;21.90;51.00;;;;;;5046395;28;20459;-74
2024/01/23 09:23:44;;;;;;;1.03;0.77;;;22.00;51.00;;;;;;5048928;28;20466;-75
2024/01/23 09:26:13;;;;;;;0.40;0.40;;;22.00;51.10;;;;;;5051194;28;20523;-75
2024/01/23 09:28:41;;;;;;;0.97;0.60;;;22.00;51.10;;;;;;5049972;28;20488;-72
2024/01/23 09:31:09;;;;;;;0.90;0.50;;;22.00;51.00;;;;;;5066561;28;20450;-75
2024/01/23 09:33:38;;;;;;;0.97;0.70;;;22.00;51.00;;;;;;5047266;28;20460;-75
2024/01/23 09:36:10;;;;;;;1.73;0.60;;;22.00;51.10;;;;;;5048306;28;20547;-76
2024/01/23 09:38:38;;;;;;;0.70;0.67;;;22.00;51.10;;;;;;5048967;28;20586;-71
2024/01/23 09:41:11;;;;;;;0.60;0.50;;;22.00;51.00;;;;;;5047564;28;20949;-73
2024/01/23 09:43:42;;;;;;;0.60;0.60;;;22.10;51.20;;;;;;5048311;28;21771;-73
2024/01/23 09:46:14;;;;;;;0.50;0.40;;;22.10;51.20;;;;;;5049144;28;20469;-74
2024/01/23 09:48:42;;;;;;;0.60;0.60;;;22.20;51.00;;;;;;5043802;28;20456;-77
2024/01/23 09:51:15;;;;;;;0.77;0.77;;;22.20;51.00;;;;;;5048746;28;20525;-76
2024/01/23 09:53:43;;;;;;;0.53;0.53;;;22.30;50.90;;;;;;5044490;28;20471;-75
2024/01/23 09:56:12;;;;;;;1.27;0.67;;;22.40;50.80;;;;;;5049698;28;20454;-73
2024/01/23 09:58:40;;;;;;;3.13;0.73;;;22.40;50.70;;;;;;5046418;28;20807;-75
2024/01/23 10:01:09;;;;;;;0.67;0.53;;;22.50;50.60;;;;;;5048355;28;20466;-74
2024/01/23 10:03:38;;;;;;;0.80;0.50;;;22.60;50.60;;;;;;5047999;28;20861;-71
2024/01/23 10:06:06;;;;;;;0.77;0.77;;;22.60;50.30;;;;;;5045170;28;20474;-71
2024/01/23 10:08:36;;;;;;;1.37;0.90;;;22.70;50.20;;;;;;5048201;28;21006;-72
2024/01/23 10:11:04;;;;;;;1.53;0.70;;;22.70;50.10;;;;;;5050116;28;20459;-71
2024/01/23 10:13:33;;;;;;;0.60;0.57;;;22.70;50.00;;;;;;5044386;28;20473;-71
2024/01/23 10:16:01;;;;;;;0.73;0.73;;;22.80;50.10;;;;;;5050640;28;20447;-74
2024/01/23 10:18:29;;;;;;;0.70;0.70;;;22.70;50.10;;;;;;5049253;28;20531;-74
2024/01/23 10:20:58;;;;;;;0.80;0.80;;;22.70;50.10;;;;;;5042566;28;20455;-74
2024/01/23 10:23:27;;;;;;;0.77;0.77;;;22.70;50.00;;;;;;5048423;28;20954;-73
2024/01/23 10:25:59;;;;;;;0.70;0.60;;;22.70;50.10;;;;;;5046467;28;20844;-73
2024/01/23 10:28:27;;;;;;;0.70;0.57;;;22.70;50.10;;;;;;5044700;28;20577;-73
2024/01/23 10:30:56;;;;;;;1.00;0.73;;;22.70;50.10;;;;;;5046209;28;20455;-72
2024/01/23 10:33:25;;;;;;;2.83;0.53;;;22.80;50.00;;;;;;5046879;28;20462;-71
2024/01/23 10:35:54;;;;;;;0.77;0.50;;;22.90;49.80;;;;;;5046336;28;20458;-72
2024/01/23 10:38:23;;;;;;;0.90;0.90;;;22.90;49.90;;;;;;5045684;28;20458;-74
2024/01/23 10:40:52;;;;;;;1.27;1.03;;;23.00;49.60;;;;;;5046527;28;20451;-73
2024/01/23 10:43:23;;;;;;;0.70;0.70;;;23.00;49.60;;;;;;5049251;28;21139;-73
2024/01/23 10:45:53;;;;;;;0.70;0.57;;;23.10;49.70;;;;;;5049176;28;20508;-73
2024/01/23 10:48:21;;;;;;;1.57;1.37;;;23.10;49.70;;;;;;5045169;28;20920;-74
2024/01/23 10:50:51;;;;;;;0.80;0.60;;;23.20;49.70;;;;;;5047699;28;20462;-73
2024/01/23 10:53:22;;;;;;;0.90;0.63;;;23.30;49.60;;;;;;5045890;28;20500;-73
2024/01/23 10:55:54;;;;;;;1.07;0.70;;;23.40;49.30;;;;;;5044456;28;20463;-73
2024/01/23 10:58:30;;;;;;;2.30;1.30;;;23.50;49.20;;;;;;5048424;28;20481;-75
2024/01/23 11:01:01;;;;;;;1.70;1.00;;;23.50;49.30;;;;;;5048315;28;20475;-66
2024/01/23 11:03:31;;;;;;;0.70;0.70;;;23.50;49.20;;;;;;5048855;28;20214;-67
2024/01/23 11:06:05;;;;;;;0.70;0.70;;;23.50;49.10;;;;;;5046816;28;20789;-70
2024/01/23 11:08:39;;;;;;;0.80;0.70;;;23.30;49.00;;;;;;5040286;28;20478;-69
2024/01/23 11:11:16;;;;;;;0.70;0.70;;;23.30;49.20;;;;;;5047705;28;20478;-69
2024/01/23 11:13:58;;;;;;;0.70;0.70;;;23.20;49.30;;;;;;5043318;28;20455;-70
2024/01/23 11:16:28;;;;;;;2.20;1.00;;;23.10;49.50;;;;;;5045489;28;20447;-71
2024/01/23 11:18:56;;;;;;;2.30;1.23;;;23.10;49.50;;;;;;5048557;28;20505;-70
2024/01/23 11:21:26;;;;;;;1.10;1.00;;;23.10;49.60;;;;;;5040793;28;21016;-70
2024/01/23 11:24:01;;;;;;;1.07;0.97;;;23.00;49.60;;;;;;5042851;28;20527;-69
2024/01/23 11:26:32;;;;;;;1.00;0.67;;;23.00;49.60;;;;;;5046063;28;20550;-70
2024/01/23 11:29:05;;;;;;;1.03;0.70;;;22.90;49.70;;;;;;5047621;28;20451;-71
2024/01/23 11:31:42;;;;;;;0.90;0.90;;;22.90;49.80;;;;;;5046979;28;20804;-70
2024/01/23 11:34:39;;;;;;;1.00;0.90;;;22.90;49.80;;;;;;5041853;28;20966;-70
2024/01/23 11:37:41;;;;;;;2.00;0.80;;;22.80;49.90;;;;;;5042680;28;20466;-70
2024/01/23 11:40:35;;;;;;;1.50;0.83;;;22.80;49.90;;;;;;5044533;28;20449;-69
2024/01/23 11:43:07;;;;;;;1.00;0.90;;;22.80;50.00;;;;;;5046040;28;20835;-73
2024/01/23 11:45:37;;;;;;;1.93;1.20;;;22.80;50.00;;;;;;5044316;28;20485;-72
2024/01/23 11:48:08;;;;;;;1.80;1.00;;;22.80;50.00;;;;;;5062594;28;20950;-77
2024/01/23 11:50:38;;;;;;;1.33;0.93;;;22.80;50.10;;;;;;5044171;28;20490;-73
2024/01/23 11:53:07;;;;;;;1.20;1.10;;;22.80;50.00;;;;;;5044784;28;20457;-73
2024/01/23 11:55:39;;;;;;;1.73;1.20;;;22.70;50.10;;;;;;5045090;28;20547;-74
2024/01/23 11:58:08;;;;;;;2.40;1.00;;;22.70;50.20;;;;;;5048861;28;20443;-71
2024/01/23 12:00:38;;;;;;;0.97;0.80;;;22.70;50.20;;;;;;5044435;28;20473;-73
2024/01/23 12:03:11;;;;;;;2.13;1.10;;;22.70;50.20;;;;;;5038554;28;20467;-73
2024/01/23 12:05:40;;;;;;;1.23;1.13;;;22.70;50.20;;;;;;5046744;28;20469;-73
2024/01/23 12:08:11;;;;;;;0.80;0.80;;;22.70;50.00;;;;;;5035825;28;20502;-73
2024/01/23 12:10:39;;;;;;;1.70;1.43;;;22.70;49.90;;;;;;5038940;28;20847;-73
2024/01/23 12:13:09;;;;;;;1.30;1.20;;;22.70;50.00;;;;;;5050695;28;20485;-73
2024/01/23 12:15:38;;;;;;;0.90;0.90;;;22.80;49.80;;;;;;5050584;28;20485;-73
2024/01/23 12:18:07;;;;;;;1.10;1.00;;;23.00;49.70;;;;;;5048543;28;20467;-73
2024/01/23 12:20:35;;;;;;;1.80;1.20;;;23.20;49.60;;;;;;5049959;28;20443;-73
2024/01/23 12:23:04;;;;;;;1.00;0.87;;;23.30;49.40;;;;;;5043671;28;20557;-73
2024/01/23 12:25:36;;;;;;;1.50;1.10;;;23.50;49.20;;;;;;5046855;28;20548;-73
2024/01/23 12:28:05;;;;;;;1.40;1.10;;;23.60;49.00;;;;;;5045940;28;20466;-73
2024/01/23 12:30:34;;;;;;;1.87;1.17;;;23.70;49.00;;;;;;5047773;28;20467;-73
2024/01/23 12:33:04;;;;;;;1.80;1.33;;;23.80;48.80;;;;;;5044183;28;20450;-73
2024/01/23 12:35:32;;;;;;;1.10;1.00;;;23.80;48.80;;;;;;5042037;28;20521;-73
2024/01/23 12:38:03;;;;;;;1.13;1.00;;;23.90;48.60;;;;;;5059435;28;20450;-74
2024/01/23 12:40:31;;;;;;;1.10;1.00;;;23.80;48.50;;;;;;5063617;28;20447;-73
2024/01/23 12:42:59;;;;;;;1.23;0.90;;;23.70;48.50;;;;;;5039842;28;20500;-73
2024/01/23 12:45:28;;;;;;;2.47;1.20;;;23.70;48.80;;;;;;5047334;28;20467;-74
2024/01/23 12:48:00;;;;;;;1.37;0.87;;;23.70;49.00;;;;;;5044589;28;20487;-74
2024/01/23 12:50:31;;;;;;;1.80;1.10;;;23.70;48.70;;;;;;5051316;28;20455;-74
2024/01/23 12:53:00;;;;;;;1.67;0.90;;;23.70;48.70;;;;;;5046696;28;20455;-73
2024/01/23 12:55:30;;;;;;;1.60;1.20;;;23.70;48.80;;;;;;5050278;28;20462;-74
2024/01/23 12:57:58;;;;;;;2.40;1.30;;;23.70;48.90;;;;;;5039446;28;20476;-73